createdAt,value
2016-09-05T00:00:47.722Z,0
2016-09-05T00:01:47.701Z,0
2016-09-05T00:02:47.688Z,0
2016-09-05T00:03:48.392Z,0
2016-09-05T00:04:47.683Z,0
2016-09-05T00:05:47.665Z,0
2016-09-05T00:06:47.648Z,0
2016-09-05T00:07:48.344Z,0
2016-09-05T00:08:47.640Z,0
2016-09-05T00:09:47.629Z,0
2016-09-05T00:10:47.619Z,0
2016-09-05T00:11:47.805Z,0
2016-09-05T00:12:47.593Z,0
2016-09-05T00:13:47.584Z,0
2016-09-05T00:14:48.284Z,0
2016-09-05T00:15:47.569Z,0
2016-09-05T00:16:47.562Z,0
2016-09-05T00:17:48.249Z,0
2016-09-05T00:18:47.540Z,0
2016-09-05T00:19:47.524Z,0
2016-09-05T00:20:47.513Z,0
2016-09-05T00:21:47.505Z,0
2016-09-05T00:22:48.916Z,0
2016-09-05T00:23:47.486Z,0
2016-09-05T00:24:47.474Z,0
2016-09-05T00:25:47.475Z,0
2016-09-05T00:26:47.472Z,0
2016-09-05T00:27:47.450Z,0
2016-09-05T00:28:47.434Z,0
2016-09-05T00:29:47.423Z,0
2016-09-05T00:30:47.411Z,0
2016-09-05T00:31:47.408Z,0
2016-09-05T00:32:48.102Z,0
2016-09-05T00:33:47.393Z,0
2016-09-05T00:34:48.789Z,0
2016-09-05T00:35:47.364Z,0
2016-09-05T00:36:47.374Z,0
2016-09-05T00:37:47.352Z,0
2016-09-05T00:38:47.343Z,0
2016-09-05T00:39:47.332Z,0
2016-09-05T00:40:47.315Z,0
2016-09-05T00:41:47.305Z,0
2016-09-05T00:42:48.058Z,0
2016-09-05T00:43:47.997Z,0
2016-09-05T00:44:47.982Z,0
2016-09-05T00:45:47.260Z,0
2016-09-05T00:46:47.255Z,0
2016-09-05T00:47:47.246Z,0
2016-09-05T00:48:47.238Z,0
2016-09-05T00:49:48.647Z,0
2016-09-05T00:50:47.921Z,0
2016-09-05T00:51:47.913Z,0
2016-09-05T00:52:47.911Z,0
2016-09-05T00:53:47.196Z,0
2016-09-05T00:54:47.176Z,0
2016-09-05T00:55:47.165Z,0
2016-09-05T00:56:47.161Z,0
2016-09-05T00:57:47.147Z,0
2016-09-05T00:58:47.848Z,0
2016-09-05T00:59:47.130Z,0
2016-09-05T01:00:47.824Z,0
2016-09-05T01:01:47.813Z,0
2016-09-05T01:02:47.096Z,0
2016-09-05T01:03:47.088Z,0
2016-09-05T01:04:47.070Z,0
2016-09-05T01:05:47.060Z,0
2016-09-05T01:06:47.057Z,0
2016-09-05T01:07:47.042Z,0
2016-09-05T01:08:47.045Z,0
2016-09-05T01:09:47.021Z,0
2016-09-05T01:10:47.718Z,0
2016-09-05T01:11:47.711Z,0
2016-09-05T01:12:46.990Z,0
2016-09-05T01:13:46.978Z,0
2016-09-05T01:14:46.979Z,0
2016-09-05T01:15:46.962Z,0
2016-09-05T01:16:46.962Z,0
2016-09-05T01:17:46.943Z,0
2016-09-05T01:18:46.925Z,0
2016-09-05T01:19:46.919Z,0
2016-09-05T01:20:46.911Z,0
2016-09-05T01:21:46.898Z,0
2016-09-05T01:22:46.891Z,0
2016-09-05T01:23:47.585Z,0
2016-09-05T01:24:46.876Z,0
2016-09-05T01:25:46.859Z,0
2016-09-05T01:26:46.854Z,0
2016-09-05T01:27:47.548Z,0
2016-09-05T01:28:46.827Z,0
2016-09-05T01:29:46.825Z,0
2016-09-05T01:30:46.811Z,0
2016-09-05T01:31:47.504Z,0
2016-09-05T01:32:46.790Z,0
2016-09-05T01:33:46.775Z,0
2016-09-05T01:34:47.489Z,0
2016-09-05T01:35:46.759Z,0
2016-09-05T01:36:46.748Z,0
2016-09-05T01:37:46.745Z,0
2016-09-05T01:38:46.728Z,0
2016-09-05T01:39:46.727Z,0
2016-09-05T01:40:46.711Z,0
2016-09-05T01:41:46.700Z,0
2016-09-05T01:42:46.688Z,0
2016-09-05T01:43:46.673Z,0
2016-09-05T01:44:46.672Z,0
2016-09-05T01:45:46.666Z,0
2016-09-05T01:46:46.657Z,0
2016-09-05T01:47:46.637Z,0
2016-09-05T01:48:47.338Z,0
2016-09-05T01:49:46.616Z,0
2016-09-05T01:50:46.606Z,0
2016-09-05T01:51:46.594Z,0
2016-09-05T01:52:46.588Z,0
2016-09-05T01:53:46.576Z,0
2016-09-05T01:54:47.283Z,0
2016-09-05T01:55:47.274Z,0
2016-09-05T01:56:46.544Z,0
2016-09-05T01:57:46.539Z,0
2016-09-05T01:58:47.240Z,0
2016-09-05T01:59:47.241Z,0
2016-09-05T02:00:46.504Z,0
2016-09-05T02:01:46.503Z,0
2016-09-05T02:02:46.492Z,0
2016-09-05T02:03:46.479Z,0
2016-09-05T02:04:46.477Z,0
2016-09-05T02:05:46.459Z,0
2016-09-05T02:06:47.159Z,0
2016-09-05T02:07:46.446Z,0
2016-09-05T02:08:46.437Z,0
2016-09-05T02:09:47.127Z,0
2016-09-05T02:10:46.414Z,0
2016-09-05T02:11:47.316Z,0
2016-09-05T02:12:46.389Z,0
2016-09-05T02:13:46.378Z,0
2016-09-05T02:14:46.370Z,0
2016-09-05T02:15:46.360Z,0
2016-09-05T02:16:47.055Z,0
2016-09-05T02:17:46.340Z,0
2016-09-05T02:18:46.324Z,0
2016-09-05T02:19:46.314Z,0
2016-09-05T02:20:46.323Z,0
2016-09-05T02:21:46.301Z,0
2016-09-05T02:22:46.997Z,0
2016-09-05T02:23:47.010Z,0
2016-09-05T02:24:46.265Z,0
2016-09-05T02:25:46.969Z,0
2016-09-05T02:26:46.955Z,0
2016-09-05T02:27:46.243Z,0
2016-09-05T02:28:46.231Z,0
2016-09-05T02:29:46.216Z,0
2016-09-05T02:30:46.213Z,0
2016-09-05T02:31:46.202Z,0
2016-09-05T02:32:46.192Z,0
2016-09-05T02:33:46.185Z,0
2016-09-05T02:34:46.171Z,0
2016-09-05T02:35:46.164Z,0
2016-09-05T02:36:46.151Z,0
2016-09-05T02:37:46.856Z,0
2016-09-05T02:38:46.138Z,0
2016-09-05T02:39:46.119Z,0
2016-09-05T02:40:46.827Z,0
2016-09-05T02:41:46.104Z,0
2016-09-05T02:42:46.803Z,0
2016-09-05T02:43:46.091Z,0
2016-09-05T02:44:46.079Z,0
2016-09-05T02:45:46.064Z,0
2016-09-05T02:46:46.055Z,0
2016-09-05T02:47:46.057Z,0
2016-09-05T02:48:46.037Z,0
2016-09-05T02:49:46.732Z,0
2016-09-05T02:50:46.019Z,0
2016-09-05T02:51:46.014Z,0
2016-09-05T02:52:46.001Z,0
2016-09-05T02:53:45.984Z,0
2016-09-05T02:54:46.683Z,0
2016-09-05T02:55:45.977Z,0
2016-09-05T02:56:45.968Z,0
2016-09-05T02:57:47.375Z,0
2016-09-05T02:58:45.943Z,0
2016-09-05T02:59:45.922Z,0
2016-09-05T03:00:45.917Z,0
2016-09-05T03:01:45.907Z,0
2016-09-05T03:02:45.889Z,0
2016-09-05T03:03:45.893Z,0
2016-09-05T03:04:45.876Z,0
2016-09-05T03:05:46.574Z,0
2016-09-05T03:06:45.864Z,0
2016-09-05T03:07:45.876Z,0
2016-09-05T03:08:46.574Z,0
2016-09-05T03:09:46.563Z,0
2016-09-05T03:10:45.822Z,0
2016-09-05T03:11:45.814Z,0
2016-09-05T03:12:47.217Z,0
2016-09-05T03:13:45.789Z,0
2016-09-05T03:14:46.489Z,0
2016-09-05T03:15:45.769Z,0
2016-09-05T03:16:46.469Z,0
2016-09-05T03:17:45.766Z,0
2016-09-05T03:18:45.734Z,0
2016-09-05T03:19:45.733Z,0
2016-09-05T03:20:45.727Z,0
2016-09-05T03:21:45.720Z,0
2016-09-05T03:22:45.704Z,0
2016-09-05T03:23:46.396Z,0
2016-09-05T03:24:45.685Z,0
2016-09-05T03:25:45.666Z,0
2016-09-05T03:26:45.664Z,0
2016-09-05T03:27:45.663Z,0
2016-09-05T03:28:45.640Z,0
2016-09-05T03:29:46.350Z,0
2016-09-05T03:30:45.627Z,0
2016-09-05T03:31:45.609Z,0
2016-09-05T03:32:45.596Z,0
2016-09-05T03:33:45.588Z,0
2016-09-05T03:34:46.292Z,0
2016-09-05T03:35:45.583Z,0
2016-09-05T03:36:46.276Z,0
2016-09-05T03:37:45.551Z,0
2016-09-05T03:38:45.546Z,0
2016-09-05T03:39:45.535Z,0
2016-09-05T03:40:46.231Z,0
2016-09-05T03:41:45.521Z,0
2016-09-05T03:42:45.501Z,0
2016-09-05T03:43:46.204Z,0
2016-09-05T03:44:45.536Z,0
2016-09-05T03:45:45.473Z,0
2016-09-05T03:46:45.465Z,0
2016-09-05T03:47:45.456Z,0
2016-09-05T03:48:45.441Z,0
2016-09-05T03:49:45.445Z,0
2016-09-05T03:50:45.439Z,0
2016-09-05T03:51:45.419Z,0
2016-09-05T03:52:46.121Z,0
2016-09-05T03:53:45.396Z,0
2016-09-05T03:54:45.387Z,0
2016-09-05T03:55:45.385Z,0
2016-09-05T03:56:45.360Z,0
2016-09-05T03:57:46.080Z,0
2016-09-05T03:58:45.348Z,0
2016-09-05T03:59:45.329Z,0
2016-09-05T04:00:45.330Z,0
2016-09-05T04:01:45.318Z,0
2016-09-05T04:02:45.319Z,0
2016-09-05T04:03:45.301Z,0
2016-09-05T04:04:45.998Z,0
2016-09-05T04:05:45.991Z,0
2016-09-05T04:06:45.273Z,0
2016-09-05T04:07:45.960Z,0
2016-09-05T04:08:45.253Z,0
2016-09-05T04:09:45.244Z,0
2016-09-05T04:10:45.231Z,0
2016-09-05T04:11:45.429Z,0
2016-09-05T04:12:45.208Z,0
2016-09-05T04:13:45.905Z,0
2016-09-05T04:14:45.192Z,0
2016-09-05T04:15:45.184Z,0
2016-09-05T04:16:45.905Z,0
2016-09-05T04:17:46.596Z,0
2016-09-05T04:18:45.873Z,0
2016-09-05T04:19:45.153Z,0
2016-09-05T04:20:45.839Z,0
2016-09-05T04:21:45.119Z,0
2016-09-05T04:22:45.115Z,0
2016-09-05T04:23:45.815Z,0
2016-09-05T04:24:45.103Z,0
2016-09-05T04:25:45.089Z,0
2016-09-05T04:26:45.075Z,4
2016-09-05T04:27:45.069Z,4
2016-09-05T04:28:45.762Z,4
2016-09-05T04:29:45.046Z,4
2016-09-05T04:30:45.048Z,4
2016-09-05T04:31:45.033Z,4
2016-09-05T04:32:45.720Z,4
2016-09-05T04:33:46.421Z,4
2016-09-05T04:34:45.006Z,8
2016-09-05T04:35:45.691Z,12
2016-09-05T04:36:44.977Z,12
2016-09-05T04:37:46.384Z,12
2016-09-05T04:38:45.668Z,16
2016-09-05T04:39:44.952Z,16
2016-09-05T04:40:44.934Z,20
2016-09-05T04:41:44.933Z,24
2016-09-05T04:42:44.920Z,28
2016-09-05T04:43:45.620Z,28
2016-09-05T04:44:44.947Z,32
2016-09-05T04:45:45.601Z,44
2016-09-05T04:46:44.881Z,56
2016-09-05T04:47:44.872Z,60
2016-09-05T04:48:45.566Z,56
2016-09-05T04:49:44.850Z,52
2016-09-05T04:50:45.547Z,60
2016-09-05T04:51:45.533Z,60
2016-09-05T04:52:45.525Z,60
2016-09-05T04:53:45.511Z,80
2016-09-05T04:54:44.795Z,84
2016-09-05T04:55:44.787Z,84
2016-09-05T04:56:44.794Z,72
2016-09-05T04:57:45.471Z,88
2016-09-05T04:58:44.770Z,84
2016-09-05T04:59:44.756Z,76
2016-09-05T05:00:44.739Z,92
2016-09-05T05:01:44.730Z,84
2016-09-05T05:02:44.722Z,84
2016-09-05T05:03:45.419Z,80
2016-09-05T05:04:44.700Z,104
2016-09-05T05:05:45.424Z,144
2016-09-05T05:06:44.698Z,164
2016-09-05T05:07:44.673Z,152
2016-09-05T05:08:44.664Z,160
2016-09-05T05:09:45.361Z,164
2016-09-05T05:10:45.348Z,200
2016-09-05T05:11:44.633Z,188
2016-09-05T05:12:44.631Z,184
2016-09-05T05:13:44.622Z,196
2016-09-05T05:14:44.630Z,212
2016-09-05T05:15:45.306Z,176
2016-09-05T05:16:45.302Z,148
2016-09-05T05:17:44.580Z,168
2016-09-05T05:18:45.303Z,232
2016-09-05T05:19:45.277Z,300
2016-09-05T05:20:45.258Z,236
2016-09-05T05:21:44.535Z,216
2016-09-05T05:22:44.523Z,216
2016-09-05T05:23:45.221Z,200
2016-09-05T05:24:45.224Z,136
2016-09-05T05:25:45.199Z,112
2016-09-05T05:26:45.195Z,128
2016-09-05T05:27:44.480Z,188
2016-09-05T05:28:44.461Z,256
2016-09-05T05:29:44.473Z,220
2016-09-05T05:30:44.450Z,236
2016-09-05T05:31:45.139Z,224
2016-09-05T05:32:44.430Z,220
2016-09-05T05:33:45.120Z,228
2016-09-05T05:34:45.128Z,320
2016-09-05T05:35:44.396Z,408
2016-09-05T05:36:44.392Z,468
2016-09-05T05:37:45.099Z,580
2016-09-05T05:38:44.367Z,668
2016-09-05T05:39:45.069Z,520
2016-09-05T05:40:44.345Z,352
2016-09-05T05:41:45.757Z,396
2016-09-05T05:42:44.324Z,424
2016-09-05T05:43:44.318Z,416
2016-09-05T05:44:44.312Z,436
2016-09-05T05:45:44.303Z,460
2016-09-05T05:46:44.993Z,492
2016-09-05T05:47:44.986Z,516
2016-09-05T05:48:44.270Z,504
2016-09-05T05:49:44.973Z,580
2016-09-05T05:50:44.254Z,524
2016-09-05T05:51:44.958Z,480
2016-09-05T05:52:44.228Z,612
2016-09-05T05:53:44.923Z,720
2016-09-05T05:54:44.211Z,516
2016-09-05T05:55:44.203Z,892
2016-09-05T05:56:44.186Z,844
2016-09-05T05:57:44.182Z,784
2016-09-05T05:58:44.879Z,512
2016-09-05T05:59:44.157Z,496
2016-09-05T06:00:44.877Z,624
2016-09-05T06:01:44.846Z,756
2016-09-05T06:02:44.129Z,984
2016-09-05T06:03:44.830Z,1492
2016-09-05T06:04:44.113Z,1804
2016-09-05T06:05:44.106Z,1652
2016-09-05T06:06:44.802Z,1516
2016-09-05T06:07:44.798Z,1496
2016-09-05T06:08:44.784Z,1420
2016-09-05T06:09:44.069Z,1332
2016-09-05T06:10:44.050Z,1328
2016-09-05T06:11:44.446Z,1292
2016-09-05T06:12:44.036Z,1604
2016-09-05T06:13:44.028Z,1748
2016-09-05T06:14:44.034Z,1988
2016-09-05T06:15:44.722Z,2340
2016-09-05T06:16:43.994Z,2156
2016-09-05T06:17:43.990Z,2364
2016-09-05T06:18:44.682Z,2664
2016-09-05T06:19:43.966Z,2888
2016-09-05T06:20:43.958Z,3264
2016-09-05T06:21:44.161Z,3616
2016-09-05T06:22:44.647Z,4016
2016-09-05T06:23:44.638Z,4104
2016-09-05T06:24:44.634Z,3524
2016-09-05T06:25:44.618Z,2708
2016-09-05T06:26:44.637Z,2232
2016-09-05T06:27:43.914Z,2408
2016-09-05T06:28:43.897Z,2768
2016-09-05T06:29:43.883Z,2532
2016-09-05T06:30:44.575Z,2688
2016-09-05T06:31:43.862Z,2808
2016-09-05T06:32:43.846Z,2316
2016-09-05T06:33:45.282Z,2356
2016-09-05T06:34:44.548Z,2416
2016-09-05T06:35:43.818Z,2428
2016-09-05T06:36:43.807Z,3780
2016-09-05T06:37:43.802Z,3896
2016-09-05T06:38:43.789Z,4048
2016-09-05T06:39:43.776Z,4548
2016-09-05T06:40:43.773Z,4748
2016-09-05T06:41:44.480Z,4516
2016-09-05T06:42:43.761Z,3740
2016-09-05T06:43:43.736Z,3132
2016-09-05T06:44:44.445Z,3200
2016-09-05T06:45:45.140Z,4560
2016-09-05T06:46:45.124Z,3804
2016-09-05T06:47:43.721Z,3976
2016-09-05T06:48:44.399Z,3560
2016-09-05T06:49:44.389Z,2616
2016-09-05T06:50:43.691Z,3056
2016-09-05T06:51:43.669Z,3540
2016-09-05T06:52:43.659Z,3524
2016-09-05T06:53:43.650Z,4732
2016-09-05T06:54:43.637Z,4904
2016-09-05T06:55:43.631Z,4132
2016-09-05T06:56:44.334Z,3712
2016-09-05T06:57:43.612Z,3988
2016-09-05T06:58:44.326Z,4072
2016-09-05T06:59:43.598Z,5220
2016-09-05T07:00:44.334Z,6192
2016-09-05T07:01:43.576Z,5164
2016-09-05T07:02:44.290Z,5508
2016-09-05T07:03:44.266Z,5720
2016-09-05T07:04:43.550Z,6116
2016-09-05T07:05:44.966Z,5248
2016-09-05T07:06:43.532Z,4612
2016-09-05T07:07:44.944Z,4084
2016-09-05T07:08:43.517Z,5320
2016-09-05T07:09:43.513Z,5484
2016-09-05T07:10:43.497Z,5708
2016-09-05T07:11:44.195Z,6016
2016-09-05T07:12:43.477Z,5668
2016-09-05T07:13:43.471Z,3736
2016-09-05T07:14:44.174Z,3016
2016-09-05T07:15:43.454Z,2860
2016-09-05T07:16:43.449Z,3080
2016-09-05T07:17:43.433Z,3376
2016-09-05T07:18:43.424Z,3444
2016-09-05T07:19:44.128Z,3824
2016-09-05T07:20:43.422Z,3832
2016-09-05T07:21:44.813Z,4852
2016-09-05T07:22:44.101Z,5316
2016-09-05T07:23:43.380Z,6536
2016-09-05T07:24:43.384Z,5252
2016-09-05T07:25:43.369Z,5532
2016-09-05T07:26:44.063Z,5868
2016-09-05T07:27:43.352Z,5024
2016-09-05T07:28:43.342Z,4320
2016-09-05T07:29:44.052Z,4656
2016-09-05T07:30:43.335Z,3404
2016-09-05T07:31:43.320Z,3436
2016-09-05T07:32:43.308Z,5056
2016-09-05T07:33:43.293Z,5732
2016-09-05T07:34:43.295Z,3892
2016-09-05T07:35:43.992Z,4628
2016-09-05T07:36:43.284Z,3832
2016-09-05T07:37:43.975Z,3720
2016-09-05T07:38:43.258Z,4660
2016-09-05T07:39:43.960Z,5556
2016-09-05T07:40:43.243Z,4196
2016-09-05T07:41:43.235Z,3248
2016-09-05T07:42:43.221Z,3052
2016-09-05T07:43:44.631Z,2992
2016-09-05T07:44:43.206Z,3020
2016-09-05T07:45:43.196Z,3236
2016-09-05T07:46:43.898Z,3516
2016-09-05T07:47:43.895Z,4512
2016-09-05T07:48:43.172Z,4520
2016-09-05T07:49:43.162Z,8852
2016-09-05T07:50:43.151Z,9648
2016-09-05T07:51:43.864Z,7460
2016-09-05T07:52:43.844Z,5300
2016-09-05T07:53:43.833Z,4396
2016-09-05T07:54:43.123Z,6152
2016-09-05T07:55:43.827Z,7260
2016-09-05T07:56:43.105Z,6268
2016-09-05T07:57:43.822Z,6048
2016-09-05T07:58:43.814Z,5092
2016-09-05T07:59:43.085Z,7552
2016-09-05T08:00:43.075Z,9264
2016-09-05T08:01:43.772Z,6736
2016-09-05T08:02:43.054Z,5896
2016-09-05T08:03:44.463Z,5928
2016-09-05T08:04:43.045Z,6440
2016-09-05T08:05:43.028Z,7792
2016-09-05T08:06:43.026Z,6236
2016-09-05T08:07:43.011Z,5928
2016-09-05T08:08:43.003Z,6104
2016-09-05T08:09:43.003Z,5488
2016-09-05T08:10:42.993Z,5640
2016-09-05T08:11:42.990Z,5684
2016-09-05T08:12:43.687Z,11964
2016-09-05T08:13:42.965Z,13632
2016-09-05T08:14:42.966Z,5980
2016-09-05T08:15:42.950Z,8720
2016-09-05T08:16:42.943Z,7636
2016-09-05T08:17:44.375Z,5592
2016-09-05T08:18:43.631Z,8364
2016-09-05T08:19:43.623Z,8680
2016-09-05T08:20:42.914Z,7420
2016-09-05T08:21:42.911Z,12284
2016-09-05T08:22:42.894Z,6732
2016-09-05T08:23:42.892Z,13556
2016-09-05T08:24:43.590Z,11052
2016-09-05T08:25:42.874Z,6216
2016-09-05T08:26:42.880Z,5828
2016-09-05T08:27:42.863Z,4892
2016-09-05T08:28:42.860Z,6236
2016-09-05T08:29:43.556Z,8292
2016-09-05T08:30:42.840Z,6868
2016-09-05T08:31:42.828Z,7924
2016-09-05T08:32:44.240Z,6400
2016-09-05T08:33:42.822Z,6892
2016-09-05T08:34:43.523Z,5876
2016-09-05T08:35:42.798Z,8116
2016-09-05T08:36:42.790Z,8808
2016-09-05T08:37:42.779Z,7976
2016-09-05T08:38:42.779Z,9656
2016-09-05T08:39:42.771Z,7884
2016-09-05T08:40:44.174Z,6528
2016-09-05T08:41:42.748Z,7072
2016-09-05T08:42:42.753Z,6264
2016-09-05T08:43:42.754Z,8816
2016-09-05T08:44:42.736Z,12312
2016-09-05T08:45:43.503Z,9948
2016-09-05T08:46:42.713Z,7308
2016-09-05T08:47:42.710Z,5532
2016-09-05T08:48:42.702Z,6964
2016-09-05T08:49:42.693Z,7484
2016-09-05T08:50:42.690Z,8412
2016-09-05T08:51:42.685Z,8080
2016-09-05T08:52:42.674Z,6756
2016-09-05T08:53:42.668Z,6036
2016-09-05T08:54:42.666Z,9380
2016-09-05T08:55:42.651Z,9804
2016-09-05T08:56:42.656Z,9908
2016-09-05T08:57:42.632Z,11736
2016-09-05T08:58:42.622Z,10580
2016-09-05T08:59:43.326Z,11068
2016-09-05T09:00:42.614Z,9108
2016-09-05T09:01:43.312Z,12744
2016-09-05T09:02:43.307Z,13220
2016-09-05T09:03:43.298Z,11532
2016-09-05T09:04:42.596Z,9024
2016-09-05T09:05:42.578Z,10020
2016-09-05T09:06:43.272Z,10900
2016-09-05T09:07:43.275Z,10484
2016-09-05T09:08:43.259Z,11428
2016-09-05T09:09:42.550Z,10640
2016-09-05T09:10:42.549Z,9988
2016-09-05T09:11:42.550Z,9192
2016-09-05T09:12:42.550Z,10548
2016-09-05T09:13:42.524Z,9240
2016-09-05T09:14:42.524Z,10604
2016-09-05T09:15:43.217Z,12652
2016-09-05T09:16:42.501Z,9024
2016-09-05T09:17:42.490Z,8320
2016-09-05T09:18:43.205Z,7564
2016-09-05T09:19:43.895Z,8028
2016-09-05T09:20:42.470Z,7112
2016-09-05T09:21:43.179Z,9120
2016-09-05T09:22:43.171Z,8916
2016-09-05T09:23:43.177Z,6592
2016-09-05T09:24:42.455Z,6756
2016-09-05T09:25:42.440Z,7468
2016-09-05T09:26:43.144Z,6512
2016-09-05T09:27:43.133Z,7756
2016-09-05T09:28:42.431Z,11380
2016-09-05T09:29:42.425Z,12796
2016-09-05T09:30:42.413Z,15592
2016-09-05T09:31:43.111Z,15928
2016-09-05T09:32:43.120Z,16136
2016-09-05T09:33:43.098Z,15500
2016-09-05T09:34:43.092Z,14744
2016-09-05T09:35:42.382Z,13348
2016-09-05T09:36:42.367Z,12276
2016-09-05T09:37:43.073Z,12304
2016-09-05T09:38:43.767Z,11508
2016-09-05T09:39:43.055Z,13660
2016-09-05T09:40:43.055Z,12208
2016-09-05T09:41:42.339Z,10852
2016-09-05T09:42:43.040Z,10164
2016-09-05T09:43:42.325Z,12228
2016-09-05T09:44:42.321Z,12348
2016-09-05T09:45:43.077Z,10064
2016-09-05T09:46:42.304Z,11984
2016-09-05T09:47:43.008Z,15372
2016-09-05T09:48:42.295Z,12988
2016-09-05T09:49:43.004Z,13776
2016-09-05T09:50:42.988Z,13408
2016-09-05T09:51:42.283Z,10960
2016-09-05T09:52:42.978Z,10988
2016-09-05T09:53:42.965Z,12236
2016-09-05T09:54:42.257Z,11564
2016-09-05T09:55:42.251Z,13572
2016-09-05T09:56:42.242Z,14592
2016-09-05T09:57:42.953Z,14296
2016-09-05T09:58:42.234Z,13816
2016-09-05T09:59:42.221Z,14228
2016-09-05T10:00:42.238Z,15496
2016-09-05T10:01:42.212Z,17696
2016-09-05T10:02:42.211Z,16928
2016-09-05T10:03:42.212Z,15884
2016-09-05T10:04:42.203Z,15020
2016-09-05T10:05:42.186Z,14436
2016-09-05T10:06:43.616Z,14736
2016-09-05T10:07:42.889Z,18208
2016-09-05T10:08:42.881Z,18336
2016-09-05T10:09:42.170Z,17888
2016-09-05T10:10:43.573Z,15696
2016-09-05T10:11:42.164Z,11324
2016-09-05T10:12:42.349Z,9552
2016-09-05T10:13:42.141Z,7636
2016-09-05T10:14:42.847Z,4664
2016-09-05T10:15:43.546Z,3128
2016-09-05T10:16:42.833Z,2408
2016-09-05T10:17:42.128Z,2220
2016-09-05T10:18:42.118Z,2948
2016-09-05T10:19:42.820Z,3708
2016-09-05T10:20:42.819Z,4408
2016-09-05T10:21:42.098Z,5272
2016-09-05T10:22:42.100Z,6224
2016-09-05T10:23:42.805Z,8020
2016-09-05T10:24:42.075Z,12032
2016-09-05T10:25:42.782Z,15740
2016-09-05T10:26:42.786Z,17072
2016-09-05T10:27:42.057Z,13764
2016-09-05T10:28:42.054Z,9900
2016-09-05T10:29:42.056Z,8192
2016-09-05T10:30:42.043Z,8476
2016-09-05T10:31:42.743Z,18076
2016-09-05T10:32:42.735Z,23424
2016-09-05T10:33:43.442Z,28480
2016-09-05T10:34:42.725Z,18400
2016-09-05T10:35:42.007Z,19008
2016-09-05T10:36:42.725Z,18304
2016-09-05T10:37:42.712Z,16800
2016-09-05T10:38:44.119Z,10720
2016-09-05T10:39:42.713Z,12592
2016-09-05T10:40:42.685Z,9580
2016-09-05T10:41:41.973Z,8380
2016-09-05T10:42:41.967Z,7256
2016-09-05T10:43:42.668Z,6604
2016-09-05T10:44:42.663Z,5900
2016-09-05T10:45:42.705Z,5512
2016-09-05T10:46:42.649Z,6648
2016-09-05T10:47:43.357Z,12596
2016-09-05T10:48:41.940Z,20320
2016-09-05T10:49:42.646Z,24096
2016-09-05T10:50:41.934Z,21088
2016-09-05T10:51:41.921Z,20608
2016-09-05T10:52:41.909Z,19488
2016-09-05T10:53:41.905Z,19168
2016-09-05T10:54:41.896Z,19136
2016-09-05T10:55:41.896Z,18048
2016-09-05T10:56:42.614Z,15512
2016-09-05T10:57:42.582Z,13252
2016-09-05T10:58:41.877Z,12572
2016-09-05T10:59:41.884Z,11928
2016-09-05T11:00:41.876Z,12484
2016-09-05T11:01:43.281Z,15220
2016-09-05T11:02:41.866Z,15856
2016-09-05T11:03:41.855Z,13412
2016-09-05T11:04:41.840Z,13992
2016-09-05T11:05:41.832Z,15732
2016-09-05T11:06:43.244Z,18304
2016-09-05T11:07:42.544Z,19232
2016-09-05T11:08:41.821Z,21184
2016-09-05T11:09:42.546Z,19168
2016-09-05T11:10:43.238Z,22880
2016-09-05T11:11:41.807Z,28800
2016-09-05T11:12:43.214Z,19680
2016-09-05T11:13:41.800Z,13724
2016-09-05T11:14:42.489Z,22400
2016-09-05T11:15:42.497Z,13160
2016-09-05T11:16:41.783Z,15384
2016-09-05T11:17:42.481Z,18624
2016-09-05T11:18:41.777Z,24064
2016-09-05T11:19:42.470Z,52224
2016-09-05T11:20:41.765Z,52864
2016-09-05T11:21:42.463Z,20704
2016-09-05T11:22:41.749Z,64320
2016-09-05T11:23:41.740Z,13552
2016-09-05T11:24:42.443Z,13852
2016-09-05T11:25:41.733Z,12616
2016-09-05T11:26:41.727Z,13292
2016-09-05T11:27:41.720Z,15540
2016-09-05T11:28:42.428Z,20288
2016-09-05T11:29:43.134Z,84160
2016-09-05T11:30:41.710Z,20192
2016-09-05T11:31:41.768Z,19200
2016-09-05T11:32:41.703Z,33344
2016-09-05T11:33:41.694Z,13524
2016-09-05T11:34:42.398Z,12980
2016-09-05T11:35:41.688Z,17344
2016-09-05T11:36:41.679Z,20608
2016-09-05T11:37:41.680Z,17504
2016-09-05T11:38:41.674Z,22368
2016-09-05T11:39:42.382Z,15376
2016-09-05T11:40:41.685Z,15004
2016-09-05T11:41:41.685Z,17536
2016-09-05T11:42:42.369Z,17952
2016-09-05T11:43:42.357Z,31072
2016-09-05T11:44:41.640Z,20832
2016-09-05T11:45:42.353Z,20928
2016-09-05T11:46:41.634Z,26432
2016-09-05T11:47:41.630Z,20992
2016-09-05T11:48:41.641Z,15572
2016-09-05T11:49:42.334Z,17344
2016-09-05T11:50:42.324Z,13956
2016-09-05T11:51:42.324Z,20992
2016-09-05T11:52:41.609Z,6588
2016-09-05T11:53:42.314Z,5640
2016-09-05T11:54:42.320Z,6064
2016-09-05T11:55:41.598Z,7140
2016-09-05T11:56:41.591Z,8424
2016-09-05T11:57:42.290Z,8624
2016-09-05T11:58:41.580Z,8408
2016-09-05T11:59:41.570Z,7616
2016-09-05T12:00:41.580Z,7620
2016-09-05T12:01:41.564Z,8164
2016-09-05T12:02:42.273Z,8644
2016-09-05T12:03:41.550Z,9224
2016-09-05T12:04:42.964Z,9876
2016-09-05T12:05:41.545Z,10476
2016-09-05T12:06:41.535Z,11836
2016-09-05T12:07:41.535Z,12768
2016-09-05T12:08:41.533Z,15032
2016-09-05T12:09:41.524Z,10588
2016-09-05T12:10:42.227Z,9040
2016-09-05T12:11:41.514Z,9616
2016-09-05T12:12:43.138Z,10220
2016-09-05T12:13:42.240Z,10596
2016-09-05T12:14:41.506Z,10900
2016-09-05T12:15:42.207Z,10940
2016-09-05T12:16:41.486Z,11432
2016-09-05T12:17:42.189Z,11708
2016-09-05T12:18:41.471Z,11392
2016-09-05T12:19:42.179Z,10668
2016-09-05T12:20:41.468Z,9588
2016-09-05T12:21:42.174Z,8844
2016-09-05T12:22:41.452Z,8940
2016-09-05T12:23:41.448Z,9696
2016-09-05T12:24:42.148Z,10644
2016-09-05T12:25:41.447Z,12092
2016-09-05T12:26:41.435Z,14208
2016-09-05T12:27:41.434Z,16800
2016-09-05T12:28:41.426Z,19392
2016-09-05T12:29:42.126Z,20128
2016-09-05T12:30:41.407Z,20736
2016-09-05T12:31:42.118Z,18688
2016-09-05T12:32:42.823Z,16132
2016-09-05T12:33:42.038Z,14704
2016-09-05T12:34:42.021Z,12972
2016-09-05T12:35:41.707Z,11624
2016-09-05T12:36:41.695Z,10916
2016-09-05T12:37:41.707Z,10824
2016-09-05T12:38:41.685Z,11396
2016-09-05T12:39:41.675Z,12824
2016-09-05T12:40:41.358Z,15128
2016-09-05T12:41:41.664Z,16992
2016-09-05T12:42:41.341Z,18656
2016-09-05T12:43:41.341Z,22816
2016-09-05T12:44:41.650Z,30464
2016-09-05T12:45:41.960Z,40288
2016-09-05T12:46:41.646Z,23872
2016-09-05T12:47:41.642Z,82848
2016-09-05T12:48:41.956Z,68416
2016-09-05T12:49:41.616Z,21728
2016-09-05T12:50:41.308Z,21120
2016-09-05T12:51:41.612Z,15452
2016-09-05T12:52:41.295Z,12572
2016-09-05T12:53:41.614Z,9988
2016-09-05T12:54:41.286Z,7852
2016-09-05T12:55:41.279Z,5988
2016-09-05T12:56:41.592Z,5208
2016-09-05T12:57:41.269Z,5144
2016-09-05T12:58:41.266Z,5516
2016-09-05T12:59:41.261Z,5828
2016-09-05T13:00:41.255Z,6196
2016-09-05T13:01:41.572Z,6808
2016-09-05T13:02:41.564Z,7732
2016-09-05T13:03:41.239Z,9836
2016-09-05T13:04:41.866Z,12256
2016-09-05T13:05:41.244Z,14336
2016-09-05T13:06:41.236Z,17120
2016-09-05T13:07:41.537Z,21568
2016-09-05T13:08:41.221Z,31776
2016-09-05T13:09:41.217Z,67072
2016-09-05T13:10:41.208Z,89280
2016-09-05T13:11:41.207Z,99584
2016-09-05T13:12:41.196Z,44608
2016-09-05T13:13:41.197Z,38080
2016-09-05T13:14:41.187Z,40160
2016-09-05T13:15:41.185Z,43168
2016-09-05T13:16:41.493Z,47520
2016-09-05T13:17:41.495Z,89568
2016-09-05T13:18:41.802Z,30944
2016-09-05T13:19:41.171Z,29632
2016-09-05T13:20:41.483Z,70656
2016-09-05T13:21:41.168Z,30752
2016-09-05T13:22:41.166Z,24128
2016-09-05T13:23:41.155Z,21248
2016-09-05T13:24:41.150Z,21344
2016-09-05T13:25:41.149Z,51520
2016-09-05T13:26:41.777Z,30688
2016-09-05T13:27:41.479Z,72128
2016-09-05T13:28:41.468Z,85536
2016-09-05T13:29:41.770Z,27744
2016-09-05T13:30:41.134Z,28192
2016-09-05T13:31:41.441Z,26560
2016-09-05T13:32:41.450Z,20832
2016-09-05T13:33:41.128Z,20416
2016-09-05T13:34:41.434Z,84160
2016-09-05T13:35:41.432Z,80832
2016-09-05T13:36:41.115Z,18688
2016-09-05T13:37:41.734Z,64800
2016-09-05T13:38:41.741Z,17440
2016-09-05T13:39:41.108Z,16116
2016-09-05T13:40:41.434Z,47616
2016-09-05T13:41:41.105Z,17184
2016-09-05T13:42:41.423Z,10384